createdAt,value
2022-11-24T00:01:19.163Z,11.27
2022-11-24T00:03:52.866Z,11.02
2022-11-24T00:06:20.245Z,10.10
2022-11-24T00:08:51.107Z,13.18
2022-11-24T00:11:24.346Z,15.27
2022-11-24T00:16:27.513Z,10.23
2022-11-24T00:18:56.954Z,11.02
2022-11-24T00:21:25.643Z,10.43
2022-11-24T00:23:53.327Z,10.50
2022-11-24T00:26:43.419Z,12.90
2022-11-24T00:29:12.276Z,9.98
2022-11-24T00:31:41.435Z,10.70
2022-11-24T00:34:12.678Z,15.80
2022-11-24T00:36:40.851Z,10.05
2022-11-24T00:39:12.429Z,9.23
2022-11-24T00:41:39.751Z,15.35
2022-11-24T00:44:07.223Z,17.42
2022-11-24T00:46:35.087Z,10.60
2022-11-24T00:49:02.297Z,16.08
2022-11-24T00:51:32.588Z,18.40
2022-11-24T00:54:01.181Z,13.52
2022-11-24T00:56:29.873Z,17.73
2022-11-24T00:58:57.163Z,16.10
2022-11-24T01:01:27.016Z,17.50
2022-11-24T01:03:57.372Z,15.75
2022-11-24T01:06:26.306Z,14.80
2022-11-24T01:08:54.098Z,16.55
2022-11-24T01:11:26.256Z,12.02
2022-11-24T01:13:57.564Z,21.13
2022-11-24T01:16:26.046Z,11.18
2022-11-24T01:18:53.349Z,12.02
2022-11-24T01:21:21.312Z,14.52
2022-11-24T01:23:48.586Z,12.40
2022-11-24T01:26:19.462Z,12.80
2022-11-24T01:28:47.931Z,12.48
2022-11-24T01:31:16.792Z,13.88
2022-11-24T01:33:44.122Z,13.50
2022-11-24T01:36:11.445Z,9.98
2022-11-24T01:38:38.582Z,13.07
2022-11-24T01:41:07.406Z,17.02
2022-11-24T01:43:34.869Z,15.15
2022-11-24T01:46:30.596Z,16.83
2022-11-24T01:49:04.293Z,16.85
2022-11-24T01:51:34.765Z,15.93
2022-11-24T01:54:31.218Z,13.18
2022-11-24T01:57:04.205Z,19.25
2022-11-24T01:59:31.709Z,13.55
2022-11-24T02:01:59.038Z,14.48
2022-11-24T02:04:29.912Z,15.98
2022-11-24T02:07:00.083Z,14.32
2022-11-24T02:09:33.740Z,16.58
2022-11-24T02:12:02.735Z,10.88
2022-11-24T02:14:30.227Z,19.30
2022-11-24T02:16:57.289Z,18.17
2022-11-24T02:19:33.493Z,11.85
2022-11-24T02:22:02.938Z,14.43
2022-11-24T02:24:58.814Z,15.02
2022-11-24T02:27:25.966Z,15.23
2022-11-24T02:29:53.141Z,15.75
2022-11-24T02:32:20.855Z,16.30
2022-11-24T02:34:48.031Z,16.80
2022-11-24T02:37:15.213Z,17.23
2022-11-24T02:39:42.431Z,14.75
2022-11-24T02:42:13.870Z,16.08
2022-11-24T02:44:48.384Z,16.20
2022-11-24T02:47:15.547Z,17.98
2022-11-24T02:49:42.762Z,16.10
2022-11-24T02:52:09.864Z,22.35
2022-11-24T02:54:37.255Z,17.13
2022-11-24T02:57:04.612Z,17.38
2022-11-24T02:59:31.996Z,15.70
2022-11-24T03:01:59.175Z,20.25
2022-11-24T03:04:26.524Z,18.50
2022-11-24T03:06:53.726Z,16.25
2022-11-24T03:09:21.008Z,13.80
2022-11-24T03:11:48.112Z,17.35
2022-11-24T03:14:15.272Z,19.65
2022-11-24T03:16:42.358Z,20.30
2022-11-24T03:19:09.537Z,20.92
2022-11-24T03:21:37.188Z,13.38
2022-11-24T03:24:04.542Z,17.52
2022-11-24T03:26:34.591Z,17.58
2022-11-24T03:29:02.143Z,17.85
2022-11-24T03:31:29.313Z,16.83
2022-11-24T03:33:56.677Z,19.00
2022-11-24T03:36:23.787Z,22.15
2022-11-24T03:38:51.044Z,18.67
2022-11-24T03:41:18.335Z,18.52
2022-11-24T03:43:45.492Z,21.67
2022-11-24T03:46:13.129Z,19.38
2022-11-24T03:48:41.621Z,18.98
2022-11-24T03:51:10.245Z,21.67
2022-11-24T03:53:37.568Z,20.77
2022-11-24T03:56:05.370Z,15.63
2022-11-24T03:58:32.991Z,22.25
2022-11-24T04:01:00.186Z,19.75
2022-11-24T04:03:27.542Z,17.23
2022-11-24T04:05:55.013Z,21.75
2022-11-24T04:08:22.167Z,19.77
2022-11-24T04:10:51.706Z,12.55
2022-11-24T04:13:20.737Z,17.45
2022-11-24T04:15:54.733Z,20.02
2022-11-24T04:18:25.658Z,18.90
2022-11-24T04:20:52.874Z,16.88
2022-11-24T04:23:22.704Z,22.52
2022-11-24T04:25:50.121Z,24.48
2022-11-24T04:28:17.934Z,14.95
2022-11-24T04:30:45.335Z,18.95
2022-11-24T04:33:13.638Z,20.27
2022-11-24T04:35:41.064Z,17.58
2022-11-24T04:38:08.155Z,15.38
2022-11-24T04:40:35.277Z,20.42
2022-11-24T04:43:02.443Z,20.92
2022-11-24T04:45:31.095Z,19.08
2022-11-24T04:47:58.160Z,18.75
2022-11-24T04:50:25.494Z,18.77
2022-11-24T04:52:52.817Z,21.95
2022-11-24T04:55:19.909Z,22.20
2022-11-24T04:57:47.045Z,21.40
2022-11-24T05:00:14.752Z,20.10
2022-11-24T05:02:41.862Z,18.40
2022-11-24T05:05:09.246Z,19.75
2022-11-24T05:07:36.642Z,13.23
2022-11-24T05:10:22.655Z,16.65
2022-11-24T05:12:57.615Z,17.42
2022-11-24T05:15:24.962Z,14.80
2022-11-24T05:17:52.546Z,15.23
2022-11-24T05:20:20.525Z,25.50
2022-11-24T05:22:51.197Z,19.85
2022-11-24T05:25:18.513Z,16.90
2022-11-24T05:27:45.630Z,13.75
2022-11-24T05:30:13.223Z,13.68
2022-11-24T05:32:40.371Z,18.13
2022-11-24T05:35:09.838Z,18.02
2022-11-24T05:37:37.725Z,16.60
2022-11-24T05:40:07.015Z,13.10
2022-11-24T05:42:47.278Z,18.77
2022-11-24T05:45:20.245Z,21.65
2022-11-24T05:47:48.905Z,21.77
2022-11-24T05:50:18.389Z,19.42
2022-11-24T05:52:45.742Z,15.13
2022-11-24T05:55:14.832Z,20.00
2022-11-24T05:57:42.401Z,20.63
2022-11-24T06:00:10.701Z,13.98
2022-11-24T06:02:41.105Z,17.90
2022-11-24T06:05:08.449Z,14.15
2022-11-24T06:07:35.623Z,23.42
2022-11-24T06:10:03.055Z,19.90
2022-11-24T06:12:30.554Z,22.65
2022-11-24T06:14:57.606Z,19.83
2022-11-24T06:17:24.763Z,13.85
2022-11-24T06:19:51.892Z,21.15
2022-11-24T06:22:19.500Z,17.95
2022-11-24T06:24:47.293Z,18.63
2022-11-24T06:27:14.734Z,20.88
2022-11-24T06:29:41.926Z,23.90
2022-11-24T06:32:09.607Z,19.73
2022-11-24T06:34:36.955Z,21.30
2022-11-24T06:37:04.162Z,18.30
2022-11-24T06:39:31.322Z,20.95
2022-11-24T06:41:58.664Z,20.67
2022-11-24T06:44:26.399Z,18.48
2022-11-24T06:46:53.514Z,24.33
2022-11-24T06:49:20.605Z,15.07
2022-11-24T06:51:47.680Z,20.17
2022-11-24T06:54:17.285Z,20.55
2022-11-24T06:56:44.455Z,18.63
2022-11-24T06:59:20.563Z,27.63
2022-11-24T07:01:48.131Z,21.38
2022-11-24T07:04:16.032Z,27.60
2022-11-24T07:06:44.199Z,28.27
2022-11-24T07:09:12.982Z,27.42
2022-11-24T07:11:40.959Z,23.88
2022-11-24T07:14:08.313Z,25.27
2022-11-24T07:16:36.669Z,28.77
2022-11-24T07:19:03.886Z,22.80
2022-11-24T07:21:35.413Z,17.15
2022-11-24T07:24:02.508Z,25.23
2022-11-24T07:26:29.618Z,24.23
2022-11-24T07:28:56.676Z,24.40
2022-11-24T07:31:26.593Z,26.00
2022-11-24T07:33:55.207Z,28.35
2022-11-24T07:36:23.197Z,25.73
2022-11-24T07:38:50.769Z,22.63
2022-11-24T07:41:19.807Z,27.73
2022-11-24T07:43:47.995Z,30.70
2022-11-24T07:46:17.578Z,24.80
2022-11-24T07:48:45.587Z,23.25
2022-11-24T07:51:13.169Z,28.10
2022-11-24T07:53:43.436Z,26.33
2022-11-24T07:56:13.528Z,23.42
2022-11-24T07:58:40.662Z,20.65
2022-11-24T08:01:16.035Z,26.70
2022-11-24T08:03:45.938Z,22.48
2022-11-24T08:06:37.512Z,19.88
2022-11-24T08:09:01.310Z,23.05
2022-11-24T08:11:28.630Z,20.08
2022-11-24T08:13:58.685Z,21.63
2022-11-24T08:16:25.855Z,17.90
2022-11-24T08:18:58.906Z,19.98
2022-11-24T08:21:26.461Z,24.13
2022-11-24T08:23:57.605Z,22.27
2022-11-24T08:26:25.652Z,16.23
2022-11-24T08:28:57.999Z,20.23
2022-11-24T08:31:33.195Z,22.75
2022-11-24T08:34:02.351Z,20.77
2022-11-24T08:36:30.144Z,26.83
2022-11-24T08:39:01.154Z,24.52
2022-11-24T08:41:41.134Z,19.50
2022-11-24T08:44:10.942Z,26.73
2022-11-24T08:46:49.786Z,28.77
2022-11-24T08:49:19.992Z,29.27
2022-11-24T08:52:13.187Z,23.88
2022-11-24T08:54:45.502Z,24.57
2022-11-24T08:57:20.214Z,22.42
2022-11-24T08:59:48.818Z,25.48
2022-11-24T09:02:16.646Z,25.50
2022-11-24T09:07:26.103Z,30.45
2022-11-24T09:09:53.240Z,32.38
2022-11-24T09:12:23.239Z,24.45
2022-11-24T09:14:50.273Z,25.00
2022-11-24T09:17:17.742Z,31.05
2022-11-24T09:19:44.842Z,28.73
2022-11-24T09:22:11.920Z,27.02
2022-11-24T09:24:39.022Z,26.25
2022-11-24T09:27:15.386Z,28.35
2022-11-24T09:29:42.915Z,25.05
2022-11-24T09:32:10.571Z,24.40
2022-11-24T09:34:40.228Z,22.05
2022-11-24T09:37:09.957Z,28.02
2022-11-24T09:39:40.218Z,29.38
2022-11-24T09:42:17.430Z,30.30
2022-11-24T09:45:07.686Z,29.00
2022-11-24T09:48:07.702Z,31.38
2022-11-24T09:50:37.530Z,26.17
2022-11-24T09:53:36.175Z,28.20
2022-11-24T09:56:25.751Z,26.35
2022-11-24T09:59:15.125Z,27.75
2022-11-24T10:01:45.379Z,26.60
2022-11-24T10:04:40.342Z,30.63
2022-11-24T10:07:21.367Z,21.35
2022-11-24T10:10:13.157Z,25.98
2022-11-24T10:13:04.399Z,32.72
2022-11-24T10:15:58.603Z,27.40
2022-11-24T10:21:39.325Z,31.73
2022-11-24T10:24:15.392Z,25.33
2022-11-24T10:26:54.233Z,30.00
2022-11-24T10:29:28.793Z,29.42
2022-11-24T10:31:57.542Z,27.25
2022-11-24T10:34:34.679Z,24.10
2022-11-24T10:37:11.144Z,26.23
2022-11-24T10:39:46.804Z,29.35
2022-11-24T10:42:23.814Z,25.02
2022-11-24T10:45:03.546Z,22.92
2022-11-24T10:47:31.426Z,25.73
2022-11-24T10:50:02.973Z,24.08
2022-11-24T10:52:39.078Z,23.55
2022-11-24T10:55:06.738Z,18.13
2022-11-24T10:57:36.241Z,26.20
2022-11-24T11:01:13.053Z,29.65
2022-11-24T11:04:21.549Z,27.55
2022-11-24T11:06:48.737Z,29.52
2022-11-24T11:09:20.639Z,24.60
2022-11-24T11:11:49.116Z,27.50
2022-11-24T11:14:35.870Z,26.95
2022-11-24T11:17:23.511Z,31.65
2022-11-24T11:19:56.884Z,32.28
2022-11-24T11:22:32.744Z,33.25
2022-11-24T11:25:06.272Z,25.70
2022-11-24T11:27:33.487Z,29.85
2022-11-24T11:36:16.048Z,25.20
2022-11-24T11:38:44.516Z,26.23
2022-11-24T11:41:24.304Z,24.05
2022-11-24T11:44:01.342Z,32.97
2022-11-24T11:46:31.817Z,20.00
2022-11-24T11:48:58.905Z,24.90
2022-11-24T11:51:50.216Z,21.80
2022-11-24T11:54:27.532Z,22.23
2022-11-24T11:57:02.311Z,34.30
2022-11-24T11:59:48.923Z,25.25
2022-11-24T12:02:48.601Z,24.67
2022-11-24T12:05:41.896Z,25.45
2022-11-24T12:09:18.789Z,26.45
2022-11-24T12:11:46.127Z,33.15
2022-11-24T12:14:50.771Z,21.15
2022-11-24T12:17:17.961Z,27.58
2022-11-24T12:20:24.043Z,32.58
2022-11-24T12:23:23.437Z,23.98
2022-11-24T12:26:11.675Z,25.92
2022-11-24T12:29:16.408Z,24.77
2022-11-24T12:32:39.068Z,18.95
2022-11-24T12:35:06.209Z,14.50
2022-11-24T12:38:05.795Z,22.05
2022-11-24T12:41:33.586Z,26.02
2022-11-24T12:43:55.125Z,23.40
2022-11-24T12:46:47.484Z,25.58
2022-11-24T12:49:32.950Z,27.60
2022-11-24T12:52:06.821Z,23.52
2022-11-24T12:54:43.229Z,27.60
2022-11-24T12:57:27.818Z,25.77
2022-11-24T13:00:08.998Z,29.92
2022-11-24T13:02:57.031Z,25.08
2022-11-24T13:05:50.238Z,28.60
2022-11-24T13:08:17.451Z,26.10
2022-11-24T13:17:36.371Z,23.70
2022-11-24T13:20:23.429Z,13.70
2022-11-24T13:22:53.841Z,21.88
2022-11-24T13:29:03.583Z,22.67
2022-11-24T13:31:37.551Z,19.88
2022-11-24T13:35:08.335Z,25.70
2022-11-24T13:37:36.639Z,26.27
2022-11-24T13:40:13.430Z,15.95
2022-11-24T13:43:07.736Z,16.65
2022-11-24T13:45:45.246Z,23.90
2022-11-24T13:48:22.515Z,20.60
2022-11-24T13:50:49.685Z,23.92
2022-11-24T13:53:37.083Z,28.38
2022-11-24T13:56:23.990Z,24.27
2022-11-24T13:58:58.108Z,20.23
2022-11-24T14:04:30.549Z,22.70
2022-11-24T14:07:13.221Z,19.60
2022-11-24T14:09:47.288Z,22.83
2022-11-24T14:12:25.491Z,20.58
2022-11-24T14:15:24.127Z,20.90
2022-11-24T14:17:51.503Z,18.80
2022-11-24T14:20:27.505Z,16.83
2022-11-24T14:22:54.799Z,20.58
2022-11-24T14:25:30.974Z,23.88
2022-11-24T14:28:00.171Z,13.90
2022-11-24T14:30:31.814Z,18.98
2022-11-24T14:33:12.295Z,20.23
2022-11-24T14:35:47.952Z,21.08
2022-11-24T14:38:15.252Z,19.70
2022-11-24T14:40:49.891Z,17.02
2022-11-24T14:43:30.620Z,20.13
2022-11-24T14:46:02.463Z,18.75
2022-11-24T14:48:40.027Z,22.98
2022-11-24T14:51:15.505Z,17.98
2022-11-24T14:53:44.970Z,25.52
2022-11-24T14:56:29.344Z,16.30
2022-11-24T14:59:00.497Z,19.25
2022-11-24T15:01:27.795Z,18.13
2022-11-24T15:05:01.029Z,21.90
2022-11-24T15:07:26.242Z,23.45
2022-11-24T15:09:58.257Z,23.20
2022-11-24T15:12:51.901Z,18.65
2022-11-24T15:15:20.955Z,22.63
2022-11-24T15:17:56.178Z,17.58
2022-11-24T15:20:32.326Z,27.63
2022-11-24T15:23:23.184Z,18.20
2022-11-24T15:25:52.013Z,17.52
2022-11-24T15:28:23.965Z,18.80
2022-11-24T15:30:55.520Z,18.40
2022-11-24T15:33:23.665Z,22.35
2022-11-24T15:35:51.050Z,21.00
2022-11-24T15:38:21.489Z,17.33
2022-11-24T15:40:52.214Z,19.40
2022-11-24T15:43:23.087Z,25.30
2022-11-24T15:45:50.399Z,25.83
2022-11-24T15:48:18.462Z,21.30
2022-11-24T15:50:49.612Z,19.23
2022-11-24T15:53:33.333Z,23.65
2022-11-24T15:56:02.557Z,26.50
2022-11-24T15:58:30.113Z,25.65
2022-11-24T16:00:57.542Z,17.90
2022-11-24T16:03:46.543Z,21.02
2022-11-24T16:06:19.275Z,20.45
2022-11-24T16:08:52.027Z,15.07
2022-11-24T16:11:21.873Z,20.77
2022-11-24T16:13:52.855Z,17.45
2022-11-24T16:16:20.848Z,18.70
2022-11-24T16:18:50.555Z,19.30
2022-11-24T16:21:17.975Z,12.93
2022-11-24T16:23:45.835Z,16.75
2022-11-24T16:26:13.013Z,20.02
2022-11-24T16:28:50.286Z,15.30
2022-11-24T16:31:21.064Z,19.67
2022-11-24T16:33:54.739Z,23.67
2022-11-24T16:36:24.403Z,21.75
2022-11-24T16:38:52.323Z,21.08
2022-11-24T16:41:26.770Z,19.58
2022-11-24T16:43:55.779Z,18.70
2022-11-24T16:46:25.130Z,15.80
2022-11-24T16:48:57.959Z,23.65
2022-11-24T16:51:32.961Z,23.58
2022-11-24T16:54:02.751Z,21.30
2022-11-24T16:56:30.886Z,21.23
2022-11-24T16:58:59.444Z,19.02
2022-11-24T17:01:26.718Z,19.77
2022-11-24T17:03:53.973Z,20.90
2022-11-24T17:06:21.160Z,20.02
2022-11-24T17:08:48.377Z,10.32
2022-11-24T17:11:23.837Z,20.55
2022-11-24T17:13:55.937Z,12.70
2022-11-24T17:16:24.575Z,19.58
2022-11-24T17:18:52.386Z,17.27
2022-11-24T17:21:24.224Z,17.23
2022-11-24T17:24:05.339Z,21.05
2022-11-24T17:26:33.380Z,21.83
2022-11-24T17:29:03.394Z,22.25
2022-11-24T17:31:35.846Z,20.77
2022-11-24T17:34:05.131Z,21.15
2022-11-24T17:36:33.935Z,19.20
2022-11-24T17:39:05.544Z,21.73
2022-11-24T17:41:33.360Z,25.45
2022-11-24T17:44:00.487Z,24.90
2022-11-24T17:46:29.251Z,23.42
2022-11-24T17:48:57.045Z,29.20
2022-11-24T17:51:26.140Z,19.15
2022-11-24T17:53:55.094Z,20.15
2022-11-24T17:56:24.681Z,25.33
2022-11-24T17:58:58.204Z,23.95
2022-11-24T18:01:33.871Z,18.00
2022-11-24T18:04:09.380Z,22.52
2022-11-24T18:06:42.344Z,22.17
2022-11-24T18:09:12.876Z,21.27
2022-11-24T18:11:47.953Z,29.17
2022-11-24T18:14:18.155Z,26.38
2022-11-24T18:19:57.268Z,18.15
2022-11-24T18:22:50.008Z,20.77
2022-11-24T18:25:26.210Z,18.38
2022-11-24T18:28:16.739Z,13.15
2022-11-24T18:30:54.281Z,22.00
2022-11-24T18:33:30.119Z,31.65
2022-11-24T18:36:06.783Z,20.90
2022-11-24T18:39:21.501Z,21.77
2022-11-24T18:41:55.661Z,21.02
2022-11-24T18:44:56.317Z,14.73
2022-11-24T18:47:48.211Z,16.63
2022-11-24T18:50:18.391Z,18.30
2022-11-24T18:52:49.712Z,16.85
2022-11-24T18:55:17.191Z,22.52
2022-11-24T18:57:49.021Z,17.27
2022-11-24T19:00:16.284Z,12.55
2022-11-24T19:02:43.483Z,13.13
2022-11-24T19:05:10.689Z,13.80
2022-11-24T19:07:37.822Z,16.67
2022-11-24T19:10:05.350Z,16.58
2022-11-24T19:12:32.390Z,18.75
2022-11-24T19:14:59.519Z,13.95
2022-11-24T19:17:26.618Z,17.75
2022-11-24T19:19:53.774Z,13.70
2022-11-24T19:22:21.145Z,17.13
2022-11-24T19:24:50.114Z,14.55
2022-11-24T19:27:18.906Z,12.88
2022-11-24T19:29:47.403Z,22.30
2022-11-24T19:32:17.371Z,17.20
2022-11-24T19:34:44.707Z,10.75
2022-11-24T19:37:11.810Z,17.35
2022-11-24T19:39:38.807Z,20.33
2022-11-24T19:42:06.029Z,17.58
2022-11-24T19:44:33.232Z,15.63
2022-11-24T19:47:00.584Z,18.02
2022-11-24T19:49:27.623Z,13.50
2022-11-24T19:51:54.688Z,18.05
2022-11-24T19:54:21.762Z,17.00
2022-11-24T19:56:49.372Z,23.13
2022-11-24T19:59:16.462Z,21.08
2022-11-24T20:01:43.851Z,14.70
2022-11-24T20:04:13.757Z,22.95
2022-11-24T20:06:43.916Z,15.43
2022-11-24T20:11:43.005Z,12.82
2022-11-24T20:14:15.641Z,19.67
2022-11-24T20:16:43.471Z,17.40
2022-11-24T20:19:12.741Z,13.15
2022-11-24T20:21:40.205Z,13.70
2022-11-24T20:24:27.780Z,10.63
2022-11-24T20:26:58.212Z,11.75
2022-11-24T20:29:25.886Z,15.52
2022-11-24T20:31:55.123Z,15.70
2022-11-24T20:34:23.147Z,12.35
2022-11-24T20:36:52.869Z,10.52
2022-11-24T20:39:27.220Z,13.85
2022-11-24T20:41:56.110Z,14.80
2022-11-24T20:44:25.021Z,14.15
2022-11-24T20:46:55.513Z,17.58
2022-11-24T20:49:23.341Z,11.13
2022-11-24T20:51:59.811Z,10.18
2022-11-24T20:54:26.960Z,15.18
2022-11-24T20:56:54.326Z,15.13
2022-11-24T20:59:23.285Z,11.13
2022-11-24T21:01:52.328Z,14.82
2022-11-24T21:04:22.688Z,16.45
2022-11-24T21:06:50.211Z,18.92
2022-11-24T21:09:17.959Z,17.65
2022-11-24T21:11:49.551Z,16.92
2022-11-24T21:14:16.879Z,19.00
2022-11-24T21:16:44.769Z,15.02
2022-11-24T21:19:14.667Z,14.55
2022-11-24T21:21:42.979Z,14.55
2022-11-24T21:24:13.388Z,15.50
2022-11-24T21:26:41.870Z,13.65
2022-11-24T21:29:12.374Z,11.80
2022-11-24T21:31:39.555Z,13.43
2022-11-24T21:34:07.620Z,12.65
2022-11-24T21:36:40.302Z,11.82
2022-11-24T21:39:07.484Z,8.85
2022-11-24T21:41:34.776Z,11.52
2022-11-24T21:44:01.956Z,15.27
2022-11-24T21:46:37.874Z,10.98
2022-11-24T21:49:09.725Z,10.88
2022-11-24T21:51:39.587Z,10.20
2022-11-24T21:54:09.619Z,12.52
2022-11-24T21:56:37.074Z,11.77
2022-11-24T21:59:04.322Z,13.32
2022-11-24T22:01:31.636Z,10.93
2022-11-24T22:03:58.949Z,11.10
2022-11-24T22:06:26.155Z,11.63
2022-11-24T22:08:53.539Z,13.75
2022-11-24T22:11:23.114Z,13.68
2022-11-24T22:13:53.804Z,7.35
2022-11-24T22:16:23.248Z,13.65
2022-11-24T22:18:51.547Z,11.65
2022-11-24T22:21:32.438Z,13.18
2022-11-24T22:24:03.665Z,13.63
2022-11-24T22:26:34.205Z,12.68
2022-11-24T22:29:01.907Z,9.45
2022-11-24T22:31:31.714Z,14.35
2022-11-24T22:34:00.559Z,11.15
2022-11-24T22:36:30.247Z,17.42
2022-11-24T22:39:05.373Z,12.85
2022-11-24T22:41:35.589Z,15.13
2022-11-24T22:44:03.537Z,15.07
2022-11-24T22:46:33.338Z,14.35
2022-11-24T22:49:01.680Z,9.63
2022-11-24T22:51:32.556Z,13.38
2022-11-24T22:54:01.918Z,12.82
2022-11-24T22:56:32.274Z,15.90
2022-11-24T22:59:00.817Z,17.40
2022-11-24T23:01:29.965Z,11.80
2022-11-24T23:03:57.480Z,13.23
2022-11-24T23:06:27.321Z,12.55
2022-11-24T23:08:55.294Z,12.05
2022-11-24T23:11:31.542Z,14.80
2022-11-24T23:14:02.323Z,12.90
2022-11-24T23:16:29.530Z,10.70
2022-11-24T23:18:57.107Z,17.38
2022-11-24T23:21:30.512Z,12.13
2022-11-24T23:23:59.818Z,11.60
2022-11-24T23:26:29.595Z,14.10
2022-11-24T23:28:56.835Z,12.32
2022-11-24T23:31:29.174Z,15.13
2022-11-24T23:33:59.021Z,9.20
2022-11-24T23:36:32.290Z,15.57
2022-11-24T23:39:23.424Z,11.98
2022-11-24T23:41:57.381Z,13.10
2022-11-24T23:44:24.996Z,15.05
2022-11-24T23:46:52.703Z,10.65
2022-11-24T23:49:19.809Z,11.15
2022-11-24T23:51:47.213Z,6.55
2022-11-24T23:54:14.292Z,11.65
